sensor_id;sensor_type;location;lat;lon;timestamp;pressure;altitude;pressure_sealevel;temperature;humidity
68169;BME280;54981;50.206;15.978;2022-10-23T00:02:20;99164.28;;;11.43;100.00
68169;BME280;54981;50.206;15.978;2022-10-23T00:04:45;99165.09;;;11.45;100.00
68169;BME280;54981;50.206;15.978;2022-10-23T00:07:14;99182.00;;;11.44;100.00
68169;BME280;54981;50.206;15.978;2022-10-23T00:09:39;99173.16;;;11.43;100.00
68169;BME280;54981;50.206;15.978;2022-10-23T00:12:04;99181.16;;;11.43;100.00
68169;BME280;54981;50.206;15.978;2022-10-23T00:14:30;99180.19;;;11.44;100.00
68169;BME280;54981;50.206;15.978;2022-10-23T00:16:55;99182.78;;;11.46;100.00
68169;BME280;54981;50.206;15.978;2022-10-23T00:19:20;99182.78;;;11.46;100.00
68169;BME280;54981;50.206;15.978;2022-10-23T00:21:46;99182.84;;;11.44;100.00
68169;BME280;54981;50.206;15.978;2022-10-23T00:24:11;99191.75;;;11.45;100.00
68169;BME280;54981;50.206;15.978;2022-10-23T00:26:37;99186.41;;;11.45;100.00
68169;BME280;54981;50.206;15.978;2022-10-23T00:29:04;99183.81;;;11.43;100.00
68169;BME280;54981;50.206;15.978;2022-10-23T00:31:30;99182.97;;;11.43;100.00
68169;BME280;54981;50.206;15.978;2022-10-23T00:33:55;99190.00;;;11.44;100.00
68169;BME280;54981;50.206;15.978;2022-10-23T00:36:21;99183.81;;;11.43;100.00
68169;BME280;54981;50.206;15.978;2022-10-23T00:38:47;99177.44;;;11.46;100.00
68169;BME280;54981;50.206;15.978;2022-10-23T00:41:23;99180.91;;;11.48;100.00
68169;BME280;54981;50.206;15.978;2022-10-23T00:46:33;99184.66;;;11.44;100.00
68169;BME280;54981;50.206;15.978;2022-10-23T00:49:00;99183.75;;;11.45;100.00
68169;BME280;54981;50.206;15.978;2022-10-23T00:51:32;99189.81;;;11.47;100.00
68169;BME280;54981;50.206;15.978;2022-10-23T00:54:01;99190.72;;;11.47;100.00
68169;BME280;54981;50.206;15.978;2022-10-23T00:56:26;99191.56;;;11.48;100.00
68169;BME280;54981;50.206;15.978;2022-10-23T00:58:52;99192.50;;;11.47;100.00
68169;BME280;54981;50.206;15.978;2022-10-23T01:01:20;99196.91;;;11.48;100.00
68169;BME280;54981;50.206;15.978;2022-10-23T01:03:46;99196.78;;;11.49;100.00
68169;BME280;54981;50.206;15.978;2022-10-23T01:06:34;99195.16;;;11.47;100.00
68169;BME280;54981;50.206;15.978;2022-10-23T01:11:51;99196.97;;;11.46;100.00
68169;BME280;54981;50.206;15.978;2022-10-23T01:20:10;99191.75;;;11.45;100.00
68169;BME280;54981;50.206;15.978;2022-10-23T01:23:00;99184.66;;;11.44;100.00
68169;BME280;54981;50.206;15.978;2022-10-23T01:28:02;99180.13;;;11.46;100.00
68169;BME280;54981;50.206;15.978;2022-10-23T01:30:32;99183.81;;;11.43;100.00
68169;BME280;54981;50.206;15.978;2022-10-23T01:33:05;99185.63;;;11.43;100.00
68169;BME280;54981;50.206;15.978;2022-10-23T01:35:41;99186.47;;;11.43;100.00
68169;BME280;54981;50.206;15.978;2022-10-23T01:38:16;99187.41;;;11.42;100.00
68169;BME280;54981;50.206;15.978;2022-10-23T01:40:49;99182.78;;;11.46;100.00
68169;BME280;54981;50.206;15.978;2022-10-23T01:43:24;99179.00;;;11.50;100.00
68169;BME280;54981;50.206;15.978;2022-10-23T01:45:57;99181.75;;;11.48;100.00
68169;BME280;54981;50.206;15.978;2022-10-23T01:48:26;99193.28;;;11.49;100.00
68169;BME280;54981;50.206;15.978;2022-10-23T01:50:54;99184.50;;;11.47;100.00
68169;BME280;54981;50.206;15.978;2022-10-23T01:53:21;99175.56;;;11.48;100.00
68169;BME280;54981;50.206;15.978;2022-10-23T01:55:50;99174.19;;;11.41;100.00
68169;BME280;54981;50.206;15.978;2022-10-23T01:58:16;99175.47;;;11.34;100.00
68169;BME280;54981;50.206;15.978;2022-10-23T02:00:44;99173.13;;;11.27;100.00
68169;BME280;54981;50.206;15.978;2022-10-23T02:03:12;99178.06;;;11.18;100.00
68169;BME280;54981;50.206;15.978;2022-10-23T02:05:39;99176.69;;;11.11;100.00
68169;BME280;54981;50.206;15.978;2022-10-23T02:08:05;99169.72;;;11.08;100.00
68169;BME280;54981;50.206;15.978;2022-10-23T02:13:24;99168.63;;;11.12;100.00
68169;BME280;54981;50.206;15.978;2022-10-23T02:16:15;99171.28;;;11.12;100.00
68169;BME280;54981;50.206;15.978;2022-10-23T02:19:11;99171.28;;;11.12;100.00
68169;BME280;54981;50.206;15.978;2022-10-23T02:24:19;99165.88;;;11.14;100.00
68169;BME280;54981;50.206;15.978;2022-10-23T02:26:58;99171.13;;;11.15;100.00
68169;BME280;54981;50.206;15.978;2022-10-23T02:29:39;99169.06;;;11.20;100.00
68169;BME280;54981;50.206;15.978;2022-10-23T02:32:08;99168.50;;;11.31;100.00
68169;BME280;54981;50.206;15.978;2022-10-23T02:34:34;99163.66;;;11.22;100.00
68169;BME280;54981;50.206;15.978;2022-10-23T02:36:59;99169.66;;;11.25;100.00
68169;BME280;54981;50.206;15.978;2022-10-23T02:39:26;99162.13;;;11.34;100.00
68169;BME280;54981;50.206;15.978;2022-10-23T02:47:09;99168.97;;;11.22;100.00
68169;BME280;54981;50.206;15.978;2022-10-23T02:50:09;99181.22;;;11.26;100.00
68169;BME280;54981;50.206;15.978;2022-10-23T03:01:04;99176.00;;;11.07;100.00
68169;BME280;54981;50.206;15.978;2022-10-23T03:03:41;99178.66;;;11.07;100.00
68169;BME280;54981;50.206;15.978;2022-10-23T03:06:08;99175.03;;;11.08;100.00
68169;BME280;54981;50.206;15.978;2022-10-23T03:08:47;99172.47;;;11.06;100.00
68169;BME280;54981;50.206;15.978;2022-10-23T03:11:13;99174.97;;;11.09;100.00
68169;BME280;54981;50.206;15.978;2022-10-23T03:13:39;99179.44;;;11.09;100.00
68169;BME280;54981;50.206;15.978;2022-10-23T03:16:04;99188.38;;;11.08;100.00
68169;BME280;54981;50.206;15.978;2022-10-23T03:18:29;99187.28;;;11.12;100.00
68169;BME280;54981;50.206;15.978;2022-10-23T03:20:55;99188.19;;;11.11;100.00
68169;BME280;54981;50.206;15.978;2022-10-23T03:23:20;99179.44;;;11.09;100.00
68169;BME280;54981;50.206;15.978;2022-10-23T03:25:46;99167.06;;;11.08;100.00
68169;BME280;54981;50.206;15.978;2022-10-23T03:28:11;99170.56;;;11.08;100.00
68169;BME280;54981;50.206;15.978;2022-10-23T03:30:36;99169.72;;;11.08;100.00
68169;BME280;54981;50.206;15.978;2022-10-23T03:33:02;99178.50;;;11.10;100.00
68169;BME280;54981;50.206;15.978;2022-10-23T03:35:27;99177.53;;;11.11;100.00
68169;BME280;54981;50.206;15.978;2022-10-23T03:37:52;99180.13;;;11.13;100.00
68169;BME280;54981;50.206;15.978;2022-10-23T03:40:18;99180.31;;;11.09;100.00
68169;BME280;54981;50.206;15.978;2022-10-23T03:42:43;99184.78;;;11.09;100.00
68169;BME280;54981;50.206;15.978;2022-10-23T03:45:09;99181.16;;;11.10;100.00
68169;BME280;54981;50.206;15.978;2022-10-23T03:47:34;99177.47;;;11.13;100.00
68169;BME280;54981;50.206;15.978;2022-10-23T03:50:05;99175.66;;;11.13;100.00
68169;BME280;54981;50.206;15.978;2022-10-23T03:52:31;99177.47;;;11.13;100.00
68169;BME280;54981;50.206;15.978;2022-10-23T03:54:56;99175.59;;;11.15;100.00
68169;BME280;54981;50.206;15.978;2022-10-23T03:57:22;99175.53;;;11.16;100.00
68169;BME280;54981;50.206;15.978;2022-10-23T03:59:48;99173.59;;;11.18;100.00
68169;BME280;54981;50.206;15.978;2022-10-23T04:02:14;99172.75;;;11.18;100.00
68169;BME280;54981;50.206;15.978;2022-10-23T04:04:39;99175.59;;;11.15;100.00
68169;BME280;54981;50.206;15.978;2022-10-23T04:07:04;99173.78;;;11.15;100.00
68169;BME280;54981;50.206;15.978;2022-10-23T04:09:30;99170.00;;;11.19;100.00
68169;BME280;54981;50.206;15.978;2022-10-23T04:11:55;99178.00;;;11.19;100.00
68169;BME280;54981;50.206;15.978;2022-10-23T04:14:20;99178.94;;;11.18;100.00
68169;BME280;54981;50.206;15.978;2022-10-23T04:16:46;99177.06;;;11.20;100.00
68169;BME280;54981;50.206;15.978;2022-10-23T04:19:11;99177.94;;;11.21;100.00
68169;BME280;54981;50.206;15.978;2022-10-23T04:21:37;99172.69;;;11.19;100.00
68169;BME280;54981;50.206;15.978;2022-10-23T04:24:02;99170.94;;;11.18;100.00
68169;BME280;54981;50.206;15.978;2022-10-23T04:26:27;99171.28;;;11.12;100.00
68169;BME280;54981;50.206;15.978;2022-10-23T04:28:53;99168.78;;;11.09;100.00
68169;BME280;54981;50.206;15.978;2022-10-23T04:31:18;99171.28;;;11.12;100.00
68169;BME280;54981;50.206;15.978;2022-10-23T04:33:44;99171.28;;;11.12;100.00
68169;BME280;54981;50.206;15.978;2022-10-23T04:36:09;99168.63;;;11.12;100.00
68169;BME280;54981;50.206;15.978;2022-10-23T04:38:34;99170.50;;;11.10;100.00
68169;BME280;54981;50.206;15.978;2022-10-23T04:41:00;99160.63;;;11.12;100.00
68169;BME280;54981;50.206;15.978;2022-10-23T04:43:25;99171.53;;;11.07;100.00
68169;BME280;54981;50.206;15.978;2022-10-23T04:45:50;99170.56;;;11.08;100.00
68169;BME280;54981;50.206;15.978;2022-10-23T04:48:16;99164.31;;;11.09;100.00
68169;BME280;54981;50.206;15.978;2022-10-23T04:50:41;99160.94;;;11.06;100.00
68169;BME280;54981;50.206;15.978;2022-10-23T04:53:08;99156.56;;;11.05;100.00
68169;BME280;54981;50.206;15.978;2022-10-23T04:55:33;99159.41;;;11.02;100.00
68169;BME280;54981;50.206;15.978;2022-10-23T04:57:58;99173.41;;;11.05;100.00
68169;BME280;54981;50.206;15.978;2022-10-23T05:00:24;99177.72;;;11.08;100.00
68169;BME280;54981;50.206;15.978;2022-10-23T05:02:49;99178.06;;;11.02;100.00
68169;BME280;54981;50.206;15.978;2022-10-23T05:05:14;99177.03;;;11.04;100.00
68169;BME280;54981;50.206;15.978;2022-10-23T05:07:40;99172.00;;;10.98;100.00
68169;BME280;54981;50.206;15.978;2022-10-23T05:10:05;99176.78;;;10.92;100.00
68169;BME280;54981;50.206;15.978;2022-10-23T05:12:31;99180.41;;;10.91;100.00
68169;BME280;54981;50.206;15.978;2022-10-23T05:14:56;99186.69;;;10.90;100.00
68169;BME280;54981;50.206;15.978;2022-10-23T05:17:34;99179.88;;;10.84;100.00
68169;BME280;54981;50.206;15.978;2022-10-23T05:20:04;99174.72;;;10.81;100.00
68169;BME280;54981;50.206;15.978;2022-10-23T05:22:35;99160.84;;;10.74;100.00
68169;BME280;54981;50.206;15.978;2022-10-23T05:25:03;99169.84;;;10.72;100.00
68169;BME280;54981;50.206;15.978;2022-10-23T05:27:28;99176.19;;;10.69;100.00
68169;BME280;54981;50.206;15.978;2022-10-23T05:29:53;99172.75;;;10.67;100.00
68169;BME280;54981;50.206;15.978;2022-10-23T05:32:19;99179.81;;;10.68;100.00
68169;BME280;54981;50.206;15.978;2022-10-23T05:34:45;99183.25;;;10.70;100.00
68169;BME280;54981;50.206;15.978;2022-10-23T05:37:12;99174.56;;;10.66;100.00
68169;BME280;54981;50.206;15.978;2022-10-23T05:39:38;99175.25;;;10.70;100.00
68169;BME280;54981;50.206;15.978;2022-10-23T05:42:04;99175.75;;;10.61;100.00
68169;BME280;54981;50.206;15.978;2022-10-23T05:44:29;99180.97;;;10.62;100.00
68169;BME280;54981;50.206;15.978;2022-10-23T05:46:54;99178.53;;;10.58;100.00
68169;BME280;54981;50.206;15.978;2022-10-23T05:49:20;99180.28;;;10.59;100.00
68169;BME280;54981;50.206;15.978;2022-10-23T05:51:47;99184.66;;;10.60;100.00
68169;BME280;54981;50.206;15.978;2022-10-23T05:54:13;99179.34;;;10.60;100.00
68169;BME280;54981;50.206;15.978;2022-10-23T05:56:38;99184.03;;;10.55;100.00
68169;BME280;54981;50.206;15.978;2022-10-23T05:59:07;99184.09;;;10.53;100.00
68169;BME280;54981;50.206;15.978;2022-10-23T06:01:33;99185.75;;;10.56;100.00
68169;BME280;54981;50.206;15.978;2022-10-23T06:03:59;99184.81;;;10.57;100.00
68169;BME280;54981;50.206;15.978;2022-10-23T06:06:25;99186.53;;;10.58;100.00
68169;BME280;54981;50.206;15.978;2022-10-23T06:08:50;99193.66;;;10.57;100.00
68169;BME280;54981;50.206;15.978;2022-10-23T06:11:16;99192.34;;;10.66;100.00
68169;BME280;54981;50.206;15.978;2022-10-23T06:13:42;99198.28;;;10.71;100.00
68169;BME280;54981;50.206;15.978;2022-10-23T06:16:17;99192.91;;;10.73;100.00
68169;BME280;54981;50.206;15.978;2022-10-23T06:18:42;99187.47;;;10.74;100.00
68169;BME280;54981;50.206;15.978;2022-10-23T06:21:08;99190.75;;;10.79;100.00
68169;BME280;54981;50.206;15.978;2022-10-23T06:23:35;99189.66;;;10.83;100.00
68169;BME280;54981;50.206;15.978;2022-10-23T06:26:01;99187.06;;;10.82;100.00
68169;BME280;54981;50.206;15.978;2022-10-23T06:28:26;99186.56;;;10.75;100.00
68169;BME280;54981;50.206;15.978;2022-10-23T06:30:52;99186.84;;;10.69;100.00
68169;BME280;54981;50.206;15.978;2022-10-23T06:33:17;99186.69;;;10.72;100.00
68169;BME280;54981;50.206;15.978;2022-10-23T06:35:43;99189.81;;;10.63;100.00
68169;BME280;54981;50.206;15.978;2022-10-23T06:38:08;99197.06;;;10.61;100.00
68169;BME280;54981;50.206;15.978;2022-10-23T06:40:35;99194.22;;;10.64;100.00
68169;BME280;54981;50.206;15.978;2022-10-23T06:43:00;99197.06;;;10.61;100.00
68169;BME280;54981;50.206;15.978;2022-10-23T06:45:26;99197.19;;;10.58;100.00
68169;BME280;54981;50.206;15.978;2022-10-23T06:47:51;99206.53;;;10.49;100.00
68169;BME280;54981;50.206;15.978;2022-10-23T06:50:17;99217.63;;;10.57;100.00
68169;BME280;54981;50.206;15.978;2022-10-23T06:52:43;99218.25;;;10.62;100.00
68169;BME280;54981;50.206;15.978;2022-10-23T06:55:08;99224.75;;;10.57;100.00
68169;BME280;54981;50.206;15.978;2022-10-23T06:57:34;99227.03;;;10.64;100.00
68169;BME280;54981;50.206;15.978;2022-10-23T06:59:59;99227.75;;;10.68;100.00
68169;BME280;54981;50.206;15.978;2022-10-23T07:02:24;99235.25;;;10.60;100.00
68169;BME280;54981;50.206;15.978;2022-10-23T07:04:50;99225.63;;;10.57;100.00
68169;BME280;54981;50.206;15.978;2022-10-23T07:07:15;99220.69;;;10.67;100.00
68169;BME280;54981;50.206;15.978;2022-10-23T07:09:41;99221.88;;;10.61;100.00
68169;BME280;54981;50.206;15.978;2022-10-23T07:12:06;99222.44;;;10.68;100.00
68169;BME280;54981;50.206;15.978;2022-10-23T07:14:32;99225.56;;;10.76;100.00
68169;BME280;54981;50.206;15.978;2022-10-23T07:16:57;99230.72;;;10.79;100.00
68169;BME280;54981;50.206;15.978;2022-10-23T07:19:22;99235.03;;;10.82;100.00
68169;BME280;54981;50.206;15.978;2022-10-23T07:21:49;99224.28;;;10.83;100.00
68169;BME280;54981;50.206;15.978;2022-10-23T07:24:17;99225.09;;;10.85;100.00
68169;BME280;54981;50.206;15.978;2022-10-23T07:26:42;99227.97;;;10.81;100.00
68169;BME280;54981;50.206;15.978;2022-10-23T07:29:11;99228.66;;;10.84;100.00
68169;BME280;54981;50.206;15.978;2022-10-23T07:31:37;99235.56;;;10.88;100.00
68169;BME280;54981;50.206;15.978;2022-10-23T07:34:03;99232.19;;;11.02;100.00
68169;BME280;54981;50.206;15.978;2022-10-23T07:36:28;99236.56;;;11.03;100.00
68169;BME280;54981;50.206;15.978;2022-10-23T07:38:53;99254.19;;;11.06;100.00
68169;BME280;54981;50.206;15.978;2022-10-23T07:41:19;99256.63;;;11.11;100.00
68169;BME280;54981;50.206;15.978;2022-10-23T07:43:44;99246.53;;;11.17;100.00
68169;BME280;54981;50.206;15.978;2022-10-23T07:46:10;99248.59;;;11.28;100.00
68169;BME280;54981;50.206;15.978;2022-10-23T07:48:36;99256.53;;;11.29;100.00
68169;BME280;54981;50.206;15.978;2022-10-23T07:51:05;99250.72;;;11.39;100.00
68169;BME280;54981;50.206;15.978;2022-10-23T07:53:33;99242.47;;;11.43;100.00
68169;BME280;54981;50.206;15.978;2022-10-23T07:56:00;99254.47;;;11.52;100.00
68169;BME280;54981;50.206;15.978;2022-10-23T07:58:27;99247.13;;;11.56;100.00
68169;BME280;54981;50.206;15.978;2022-10-23T08:00:56;99233.38;;;11.63;100.00
68169;BME280;54981;50.206;15.978;2022-10-23T08:03:24;99239.84;;;11.75;100.00
68169;BME280;54981;50.206;15.978;2022-10-23T08:05:51;99247.44;;;11.83;100.00
68169;BME280;54981;50.206;15.978;2022-10-23T08:08:17;99233.19;;;12.00;100.00
68169;BME280;54981;50.206;15.978;2022-10-23T08:10:45;99233.97;;;12.18;100.00
68169;BME280;54981;50.206;15.978;2022-10-23T08:13:11;99234.47;;;12.08;100.00
68169;BME280;54981;50.206;15.978;2022-10-23T08:15:38;99234.56;;;12.23;100.00
68169;BME280;54981;50.206;15.978;2022-10-23T08:18:03;99223.84;;;12.39;100.00
68169;BME280;54981;50.206;15.978;2022-10-23T08:20:28;99218.59;;;12.37;100.00
68169;BME280;54981;50.206;15.978;2022-10-23T08:22:54;99226.69;;;12.35;100.00
68169;BME280;54981;50.206;15.978;2022-10-23T08:25:20;99222.13;;;12.53;100.00
68169;BME280;54981;50.206;15.978;2022-10-23T08:27:46;99211.09;;;12.74;100.00
68169;BME280;54981;50.206;15.978;2022-10-23T08:30:11;99208.97;;;13.09;100.00
68169;BME280;54981;50.206;15.978;2022-10-23T08:32:36;99214.38;;;13.52;100.00
68169;BME280;54981;50.206;15.978;2022-10-23T08:35:02;99206.91;;;13.57;100.00
68169;BME280;54981;50.206;15.978;2022-10-23T08:37:27;99202.59;;;13.83;100.00
68169;BME280;54981;50.206;15.978;2022-10-23T08:39:52;99207.72;;;14.01;100.00
68169;BME280;54981;50.206;15.978;2022-10-23T08:42:23;99203.63;;;14.22;100.00
68169;BME280;54981;50.206;15.978;2022-10-23T08:44:58;99214.44;;;14.48;100.00
68169;BME280;54981;50.206;15.978;2022-10-23T08:47:47;99201.22;;;14.45;100.00
68169;BME280;54981;50.206;15.978;2022-10-23T08:50:35;99203.63;;;14.22;100.00
68169;BME280;54981;50.206;15.978;2022-10-23T08:55:46;99202.66;;;14.51;100.00
68169;BME280;54981;50.206;15.978;2022-10-23T08:58:23;99206.78;;;14.56;100.00
68169;BME280;54981;50.206;15.978;2022-10-23T09:00:53;99214.50;;;15.13;100.00
68169;BME280;54981;50.206;15.978;2022-10-23T09:03:20;99224.34;;;15.39;100.00
68169;BME280;54981;50.206;15.978;2022-10-23T09:06:10;99218.00;;;15.52;100.00
68169;BME280;54981;50.206;15.978;2022-10-23T09:11:26;99231.13;;;15.70;100.00
68169;BME280;54981;50.206;15.978;2022-10-23T09:19:11;99219.81;;;15.77;99.97
68169;BME280;54981;50.206;15.978;2022-10-23T09:21:39;99212.28;;;15.95;100.00
68169;BME280;54981;50.206;15.978;2022-10-23T09:24:04;99213.72;;;15.75;98.84
68169;BME280;54981;50.206;15.978;2022-10-23T09:26:30;99214.25;;;15.81;99.37
68169;BME280;54981;50.206;15.978;2022-10-23T09:29:13;99219.06;;;15.63;100.00
68169;BME280;54981;50.206;15.978;2022-10-23T09:31:55;99213.94;;;15.60;100.00
68169;BME280;54981;50.206;15.978;2022-10-23T09:34:23;99211.28;;;15.96;99.32
68169;BME280;54981;50.206;15.978;2022-10-23T09:36:55;99214.97;;;15.95;99.34
68169;BME280;54981;50.206;15.978;2022-10-23T09:39:24;99206.63;;;16.35;97.31
68169;BME280;54981;50.206;15.978;2022-10-23T09:41:49;99205.50;;;16.51;97.18
68169;BME280;54981;50.206;15.978;2022-10-23T09:44:24;99205.56;;;16.73;96.18
68169;BME280;54981;50.206;15.978;2022-10-23T09:46:53;99203.72;;;16.63;94.82
68169;BME280;54981;50.206;15.978;2022-10-23T09:49:28;99195.88;;;16.35;95.28
68169;BME280;54981;50.206;15.978;2022-10-23T09:52:04;99204.69;;;16.13;96.88
68169;BME280;54981;50.206;15.978;2022-10-23T09:54:33;99205.75;;;16.48;97.69
68169;BME280;54981;50.206;15.978;2022-10-23T09:57:05;99197.84;;;16.81;95.24
68169;BME280;54981;50.206;15.978;2022-10-23T09:59:39;99185.19;;;17.29;91.75
68169;BME280;54981;50.206;15.978;2022-10-23T10:02:29;99180.81;;;17.61;91.52
68169;BME280;54981;50.206;15.978;2022-10-23T10:04:55;99167.34;;;17.84;88.20
68169;BME280;54981;50.206;15.978;2022-10-23T10:07:26;99169.75;;;17.98;87.82
68169;BME280;54981;50.206;15.978;2022-10-23T10:09:53;99173.19;;;17.89;87.65
68169;BME280;54981;50.206;15.978;2022-10-23T10:12:38;99167.25;;;18.18;87.67
68169;BME280;54981;50.206;15.978;2022-10-23T10:18:00;99171.09;;;18.68;85.11
68169;BME280;54981;50.206;15.978;2022-10-23T10:23:21;99182.72;;;18.80;84.07
68169;BME280;54981;50.206;15.978;2022-10-23T10:26:02;99179.56;;;18.64;81.43
68169;BME280;54981;50.206;15.978;2022-10-23T10:29:03;99171.19;;;18.78;81.69
68169;BME280;54981;50.206;15.978;2022-10-23T10:36:52;99148.75;;;18.99;82.14
68169;BME280;54981;50.206;15.978;2022-10-23T10:39:39;99146.56;;;19.13;82.01
68169;BME280;54981;50.206;15.978;2022-10-23T10:47:30;99131.59;;;18.46;83.92
68169;BME280;54981;50.206;15.978;2022-10-23T10:50:16;99131.09;;;18.73;82.86
68169;BME280;54981;50.206;15.978;2022-10-23T10:55:49;99125.97;;;18.70;81.61
68169;BME280;54981;50.206;15.978;2022-10-23T10:58:19;99119.59;;;18.50;82.98
68169;BME280;54981;50.206;15.978;2022-10-23T11:00:52;99123.25;;;18.82;82.54
68169;BME280;54981;50.206;15.978;2022-10-23T11:03:29;99120.19;;;18.75;81.63
68169;BME280;54981;50.206;15.978;2022-10-23T11:05:59;99122.16;;;18.73;81.76
68169;BME280;54981;50.206;15.978;2022-10-23T11:08:34;99114.53;;;18.04;83.38
68169;BME280;54981;50.206;15.978;2022-10-23T11:11:14;99119.84;;;18.15;84.13
68169;BME280;54981;50.206;15.978;2022-10-23T11:13:43;99116.34;;;18.03;84.55
68169;BME280;54981;50.206;15.978;2022-10-23T11:16:19;99114.50;;;18.36;83.95
68169;BME280;54981;50.206;15.978;2022-10-23T11:19:04;99112.81;;;18.35;82.76
68169;BME280;54981;50.206;15.978;2022-10-23T11:21:41;99108.81;;;18.50;80.93
68169;BME280;54981;50.206;15.978;2022-10-23T11:31:53;99102.72;;;18.37;83.64
68169;BME280;54981;50.206;15.978;2022-10-23T11:37:17;99099.22;;;18.04;83.81
68169;BME280;54981;50.206;15.978;2022-10-23T11:39:58;99100.59;;;18.20;82.71
68169;BME280;54981;50.206;15.978;2022-10-23T11:42:52;99094.41;;;18.08;83.35
68169;BME280;54981;50.206;15.978;2022-10-23T11:45:33;99074.50;;;17.88;83.92
68169;BME280;54981;50.206;15.978;2022-10-23T11:48:21;99073.09;;;17.61;85.18
68169;BME280;54981;50.206;15.978;2022-10-23T11:58:54;99057.91;;;17.60;85.51
68169;BME280;54981;50.206;15.978;2022-10-23T12:01:44;99049.97;;;18.02;85.57
68169;BME280;54981;50.206;15.978;2022-10-23T12:06:52;99032.97;;;18.44;82.34
68169;BME280;54981;50.206;15.978;2022-10-23T12:09:34;99030.31;;;17.79;86.02
68169;BME280;54981;50.206;15.978;2022-10-23T12:17:02;99016.25;;;18.08;83.82
68169;BME280;54981;50.206;15.978;2022-10-23T12:19:48;99013.78;;;17.84;84.65
68169;BME280;54981;50.206;15.978;2022-10-23T12:22:14;99012.38;;;17.68;86.66
68169;BME280;54981;50.206;15.978;2022-10-23T12:24:59;99012.66;;;17.54;88.38
68169;BME280;54981;50.206;15.978;2022-10-23T12:27:43;99012.63;;;17.65;88.09
68169;BME280;54981;50.206;15.978;2022-10-23T12:35:42;99004.94;;;17.61;88.38
68169;BME280;54981;50.206;15.978;2022-10-23T12:38:19;98997.38;;;17.43;90.09
68169;BME280;54981;50.206;15.978;2022-10-23T12:40:51;99002.06;;;17.19;91.02
68169;BME280;54981;50.206;15.978;2022-10-23T12:43:30;98998.38;;;17.31;91.17
68169;BME280;54981;50.206;15.978;2022-10-23T12:46:04;99000.47;;;17.28;90.63
68169;BME280;54981;50.206;15.978;2022-10-23T12:48:50;98998.75;;;17.38;89.59
68169;BME280;54981;50.206;15.978;2022-10-23T12:51:30;98991.88;;;17.45;89.89
68169;BME280;54981;50.206;15.978;2022-10-23T12:53:56;98990.19;;;17.33;90.06
68169;BME280;54981;50.206;15.978;2022-10-23T12:56:24;98978.63;;;17.53;89.58
68169;BME280;54981;50.206;15.978;2022-10-23T12:58:54;98977.63;;;17.65;89.84
68169;BME280;54981;50.206;15.978;2022-10-23T13:01:26;98971.19;;;17.78;88.29
68169;BME280;54981;50.206;15.978;2022-10-23T13:03:57;98978.47;;;17.66;88.98
68169;BME280;54981;50.206;15.978;2022-10-23T13:06:25;98972.38;;;17.53;88.50
68169;BME280;54981;50.206;15.978;2022-10-23T13:08:51;98969.66;;;17.64;90.37
68169;BME280;54981;50.206;15.978;2022-10-23T13:11:19;98965.19;;;17.74;89.13
68169;BME280;54981;50.206;15.978;2022-10-23T13:13:46;98956.50;;;17.82;88.83
68169;BME280;54981;50.206;15.978;2022-10-23T13:16:21;98948.75;;;17.56;88.78
68169;BME280;54981;50.206;15.978;2022-10-23T13:18:47;98942.38;;;17.57;89.95
68169;BME280;54981;50.206;15.978;2022-10-23T13:21:25;98942.66;;;17.54;89.67
68169;BME280;54981;50.206;15.978;2022-10-23T13:23:52;98943.56;;;17.64;90.69
68169;BME280;54981;50.206;15.978;2022-10-23T13:26:32;98951.88;;;17.73;90.14
68169;BME280;54981;50.206;15.978;2022-10-23T13:29:01;98944.03;;;17.81;89.39
68169;BME280;54981;50.206;15.978;2022-10-23T13:31:33;98940.50;;;17.80;90.73
68169;BME280;54981;50.206;15.978;2022-10-23T13:36:25;98943.38;;;17.56;91.49
68169;BME280;54981;50.206;15.978;2022-10-23T13:41:22;98940.13;;;17.74;91.65
68169;BME280;54981;50.206;15.978;2022-10-23T13:43:48;98937.34;;;17.64;91.42
68169;BME280;54981;50.206;15.978;2022-10-23T13:46:23;98932.47;;;17.58;90.81
68169;BME280;54981;50.206;15.978;2022-10-23T13:48:52;98922.59;;;17.47;91.34
68169;BME280;54981;50.206;15.978;2022-10-23T13:51:28;98920.56;;;17.60;91.62
68169;BME280;54981;50.206;15.978;2022-10-23T13:53:55;98914.97;;;17.63;91.12
68169;BME280;54981;50.206;15.978;2022-10-23T13:56:23;98911.53;;;17.61;91.08
68169;BME280;54981;50.206;15.978;2022-10-23T13:58:48;98900.75;;;17.61;91.98
68169;BME280;54981;50.206;15.978;2022-10-23T14:01:28;98896.03;;;17.54;91.59
68169;BME280;54981;50.206;15.978;2022-10-23T14:03:56;98906.53;;;17.57;91.97
68169;BME280;54981;50.206;15.978;2022-10-23T14:06:22;98910.28;;;17.33;92.54
68169;BME280;54981;50.206;15.978;2022-10-23T14:08:47;98908.97;;;17.28;94.09
68169;BME280;54981;50.206;15.978;2022-10-23T14:11:14;98894.13;;;17.44;93.95
68169;BME280;54981;50.206;15.978;2022-10-23T14:13:40;98885.19;;;17.44;93.13
68169;BME280;54981;50.206;15.978;2022-10-23T14:16:07;98890.44;;;17.13;94.87
68169;BME280;54981;50.206;15.978;2022-10-23T14:18:33;98890.16;;;17.28;94.80
68169;BME280;54981;50.206;15.978;2022-10-23T14:21:00;98880.88;;;17.20;94.14
68169;BME280;54981;50.206;15.978;2022-10-23T14:23:25;98880.41;;;17.15;93.94
68169;BME280;54981;50.206;15.978;2022-10-23T14:25:51;98883.84;;;17.06;94.54
68169;BME280;54981;50.206;15.978;2022-10-23T14:28:16;98884.78;;;17.16;94.45
68169;BME280;54981;50.206;15.978;2022-10-23T14:30:41;98880.16;;;17.07;94.79
68169;BME280;54981;50.206;15.978;2022-10-23T14:33:08;98887.03;;;17.00;95.25
68169;BME280;54981;50.206;15.978;2022-10-23T14:35:33;98880.81;;;16.99;95.59